Time;durP1;ratioP1;P1;durP2;ratioP2;P2;SDS_P1;SDS_P2;PMS_P1;PMS_P2;Temp;Humidity;BMP_temperature;BMP_pressure;BME280_temperature;BME280_humidity;BME280_pressure;Samples;Min_cycle;Max_cycle;Signal;HPM_P1;HPM_P2
2023/07/23 00:01:17;;;;;;;;;17.00;15.40;;;;;20.04;100.00;98724.91;7710017;22;98600;-62
2023/07/23 00:04:21;;;;;;;;;15.00;15.00;;;;;19.89;100.00;98711.34;7738343;22;96297;-62
2023/07/23 00:07:24;;;;;;;;;20.00;19.00;;;;;19.93;100.00;98717.91;7737571;22;96857;-61
2023/07/23 00:10:28;;;;;;;;;17.00;16.00;;;;;19.90;100.00;98722.00;7737091;22;96327;-61
2023/07/23 00:13:32;;;;;;;;;17.00;17.00;;;;;19.89;100.00;98717.63;7738807;22;96315;-61
2023/07/23 00:16:35;;;;;;;;;17.00;17.00;;;;;19.83;100.00;98718.81;7737503;22;96590;-61
2023/07/23 00:19:38;;;;;;;;;19.00;16.00;;;;;19.78;100.00;98718.84;7739151;22;96253;-61
2023/07/23 00:22:41;;;;;;;;;19.50;18.75;;;;;19.73;100.00;98716.16;7738530;22;96467;-61
2023/07/23 00:25:46;;;;;;;;;16.40;15.80;;;;;19.70;100.00;98716.69;7737457;22;96376;-61
2023/07/23 00:28:49;;;;;;;;;18.00;16.50;;;;;19.67;100.00;98719.19;7736497;22;96304;-61
2023/07/23 00:31:54;;;;;;;;;18.00;16.00;;;;;19.60;100.00;98716.78;7737942;22;96525;-61
2023/07/23 00:34:57;;;;;;;;;19.00;17.00;;;;;19.57;100.00;98713.78;7736255;22;96413;-61
2023/07/23 00:38:00;;;;;;;;;15.00;15.00;;;;;19.54;100.00;98711.66;7738002;22;96267;-61
2023/07/23 00:41:05;;;;;;;;;17.50;16.00;;;;;19.50;100.00;98708.63;7737430;22;96578;-61
2023/07/23 00:44:08;;;;;;;;;15.20;14.80;;;;;19.46;100.00;98707.56;7736559;22;96371;-61
2023/07/23 00:47:12;;;;;;;;;17.00;14.75;;;;;19.45;100.00;98700.47;7738073;22;96446;-61
2023/07/23 00:50:15;;;;;;;;;18.40;16.00;;;;;19.44;100.00;98698.84;7736159;22;96484;-61
2023/07/23 00:53:19;;;;;;;;;17.00;16.00;;;;;19.41;100.00;98705.66;7710743;22;96169;-61
2023/07/23 00:56:24;;;;;;;;;14.00;13.20;;;;;19.38;100.00;98706.25;7706757;22;97665;-62
2023/07/23 00:59:30;;;;;;;;;15.60;13.60;;;;;19.33;100.00;98717.22;7734168;22;96865;-61
2023/07/23 01:02:34;;;;;;;;;15.80;15.00;;;;;19.31;100.00;98715.84;7682054;22;96693;-61
2023/07/23 01:05:39;;;;;;;;;16.00;15.00;;;;;19.28;100.00;98716.41;7733877;22;96528;-61
2023/07/23 01:08:44;;;;;;;;;15.00;15.00;;;;;19.27;100.00;98715.59;7707569;22;96767;-61
2023/07/23 01:11:51;;;;;;;;;17.25;13.75;;;;;19.25;100.00;98709.59;7735536;22;96279;-61
2023/07/23 01:14:54;;;;;;;;;14.00;14.00;;;;;19.24;100.00;98712.63;7707543;22;96970;-61
2023/07/23 01:18:00;;;;;;;;;17.00;16.60;;;;;19.21;100.00;98707.69;7708150;22;96370;-61
2023/07/23 01:21:04;;;;;;;;;16.33;15.00;;;;;19.18;100.00;98711.81;7733774;22;96275;-61
2023/07/23 01:24:09;;;;;;;;;18.00;17.20;;;;;19.07;100.00;98704.78;7708258;22;96496;-61
2023/07/23 01:27:12;;;;;;;;;16.00;14.00;;;;;19.13;100.00;98713.75;7707412;22;96659;-61
2023/07/23 01:30:15;;;;;;;;;15.00;14.00;;;;;19.06;100.00;98713.25;7708806;22;96416;-61
2023/07/23 01:33:19;;;;;;;;;13.00;12.60;;;;;19.01;100.00;98709.44;7734274;22;96397;-61
2023/07/23 01:36:22;;;;;;;;;15.40;14.40;;;;;19.00;100.00;98701.53;7681702;22;96742;-61
2023/07/23 01:39:27;;;;;;;;;15.00;13.00;;;;;18.98;100.00;98701.81;7735093;22;96302;-60
2023/07/23 01:42:32;;;;;;;;;14.25;14.00;;;;;18.84;100.00;98699.97;7733682;22;96194;-61
2023/07/23 01:45:35;;;;;;;;;15.40;14.40;;;;;18.81;100.00;98692.34;7734624;22;96427;-61
2023/07/23 01:48:39;;;;;;;;;15.00;14.80;;;;;18.80;100.00;98693.44;7733089;22;96800;-62
2023/07/23 01:51:42;;;;;;;;;16.40;15.80;;;;;18.78;100.00;98698.34;7735168;22;96386;-61
2023/07/23 01:54:47;;;;;;;;;16.60;16.40;;;;;18.75;100.00;98697.00;7659820;22;1718510;-62
2023/07/23 01:57:50;;;;;;;;;15.20;14.00;;;;;18.74;100.00;98703.56;7710630;22;97115;-61
2023/07/23 02:00:57;;;;;;;;;18.80;17.80;;;;;18.73;100.00;98703.81;7687690;22;96389;-61
2023/07/23 02:04:00;;;;;;;;;14.25;14.25;;;;;18.72;100.00;98713.94;7711043;22;96500;-61
2023/07/23 02:07:04;;;;;;;;;15.00;14.00;;;;;18.71;100.00;98717.78;7737169;22;96718;-61
2023/07/23 02:10:10;;;;;;;;;16.00;16.00;;;;;18.68;100.00;98717.50;7711518;22;99126;-60
2023/07/23 02:13:13;;;;;;;;;18.00;16.00;;;;;18.66;100.00;98722.44;7739836;22;96289;-61
2023/07/23 02:16:17;;;;;;;;;20.40;17.40;;;;;18.69;100.00;98725.41;7711330;22;97217;-60
2023/07/23 02:19:20;;;;;;;;;16.75;15.00;;;;;18.67;100.00;98719.41;7685564;22;97098;-61
2023/07/23 02:22:24;;;;;;;;;19.00;17.00;;;;;18.70;100.00;98726.25;7737559;22;96504;-61
2023/07/23 02:25:28;;;;;;;;;15.00;15.00;;;;;18.70;100.00;98724.34;7737849;22;96308;-61
2023/07/23 02:28:32;;;;;;;;;17.00;15.40;;;;;18.71;100.00;98722.41;7710869;22;96694;-61
2023/07/23 02:31:35;;;;;;;;;19.33;18.33;;;;;18.67;100.00;98715.88;7739553;22;96269;-61
2023/07/23 02:34:38;;;;;;;;;15.25;14.25;;;;;18.65;100.00;98716.16;7687367;22;96791;-60
2023/07/23 02:37:41;;;;;;;;;16.00;14.00;;;;;18.61;100.00;98726.00;7740589;22;96245;-61
2023/07/23 02:40:46;;;;;;;;;17.20;14.00;;;;;18.53;100.00;98716.47;7712858;22;96890;-61
2023/07/23 02:43:49;;;;;;;;;15.50;14.00;;;;;18.54;100.00;98726.28;7740530;22;96283;-61
2023/07/23 02:46:52;;;;;;;;;14.50;13.00;;;;;18.54;100.00;98723.56;7739974;22;96271;-61
2023/07/23 02:49:57;;;;;;;;;17.00;16.00;;;;;18.49;100.00;98720.00;7713780;22;96266;-61
2023/07/23 02:53:00;;;;;;;;;16.00;15.00;;;;;18.47;100.00;98722.97;7740332;22;96315;-61
2023/07/23 02:56:05;;;;;;;;;19.80;16.80;;;;;18.44;100.00;98723.53;7737071;22;98142;-61
2023/07/23 02:59:08;;;;;;;;;17.00;16.00;;;;;18.43;100.00;98721.09;7737920;22;96443;-60
2023/07/23 03:02:13;;;;;;;;;14.00;14.00;;;;;18.44;100.00;98722.72;7738134;22;96270;-61
2023/07/23 03:05:17;;;;;;;;;17.00;15.60;;;;;18.40;100.00;98711.56;7738020;22;96375;-60
2023/07/23 03:08:20;;;;;;;;;15.00;14.20;;;;;18.48;100.00;98721.06;7685901;22;98896;-61
2023/07/23 03:11:25;;;;;;;;;15.60;14.20;;;;;18.51;100.00;98724.09;7739675;22;96820;-60
2023/07/23 03:14:29;;;;;;;;;15.00;14.80;;;;;18.54;100.00;98717.28;7736916;22;97588;-61
2023/07/23 03:17:32;;;;;;;;;17.00;16.20;;;;;18.53;100.00;98712.88;7709202;22;96704;-61
2023/07/23 03:20:35;;;;;;;;;17.00;15.75;;;;;18.54;100.00;98717.28;7685750;22;98326;-61
2023/07/23 03:23:38;;;;;;;;;16.00;15.00;;;;;18.55;100.00;98705.25;7712700;22;96845;-60
2023/07/23 03:26:43;;;;;;;;;16.00;14.00;;;;;18.56;100.00;98712.38;7711318;22;96768;-61
2023/07/23 03:29:46;;;;;;;;;17.75;16.00;;;;;18.59;100.00;98703.63;7711582;22;98382;-60
2023/07/23 03:32:50;;;;;;;;;17.00;16.40;;;;;18.63;100.00;98712.06;7710724;22;98488;-60
2023/07/23 03:35:53;;;;;;;;;16.20;15.60;;;;;18.68;100.00;98715.59;7713246;22;97251;-60
2023/07/23 03:38:56;;;;;;;;;16.40;16.00;;;;;18.71;100.00;98709.59;7711414;22;98391;-60
2023/07/23 03:42:02;;;;;;;;;15.00;14.00;;;;;18.76;100.00;98712.31;7687049;22;99560;-61
2023/07/23 03:45:07;;;;;;;;;18.40;16.40;;;;;18.75;100.00;98699.75;7712974;22;96363;-60
2023/07/23 03:48:10;;;;;;;;;16.00;16.00;;;;;18.89;100.00;98711.69;7738932;22;96237;-61
2023/07/23 03:51:15;;;;;;;;;14.00;14.00;;;;;18.97;100.00;98713.84;7711431;22;96643;-60
2023/07/23 03:54:18;;;;;;;;;17.00;14.60;;;;;19.04;100.00;98711.63;7739926;22;96954;-61
2023/07/23 03:57:23;;;;;;;;;16.00;15.00;;;;;19.09;100.00;98713.50;7740012;22;96914;-60
2023/07/23 04:00:26;;;;;;;;;15.00;14.00;;;;;19.17;100.00;98717.56;7712219;22;97566;-61
2023/07/23 04:03:29;;;;;;;;;16.80;15.40;;;;;19.18;100.00;98709.09;7739526;22;96364;-60
2023/07/23 04:06:32;;;;;;;;;15.80;14.00;;;;;19.24;100.00;98713.44;7686998;22;96760;-61
2023/07/23 04:09:36;;;;;;;;;15.00;14.00;;;;;19.29;100.00;98723.53;7740286;22;96400;-61
2023/07/23 04:12:40;;;;;;;;;12.00;12.00;;;;;19.29;100.00;98723.53;7712697;22;98311;-62
2023/07/23 04:15:43;;;;;;;;;13.00;12.00;;;;;19.36;100.00;98732.22;7738489;22;96318;-60
2023/07/23 04:18:47;;;;;;;;;12.60;12.20;;;;;19.49;100.00;98734.38;7712815;22;98582;-61
2023/07/23 04:21:50;;;;;;;;;14.00;13.75;;;;;19.63;100.00;98715.41;7713336;22;98529;-61
2023/07/23 04:24:54;;;;;;;;;13.60;12.60;;;;;19.75;100.00;98721.31;7711386;22;96930;-61
2023/07/23 04:27:58;;;;;;;;;16.40;15.40;;;;;19.92;100.00;98723.66;7735531;22;96291;-62
2023/07/23 04:31:01;;;;;;;;;16.60;14.80;;;;;20.09;100.00;98729.50;7710346;22;98448;-61
2023/07/23 04:34:04;;;;;;;;;15.25;14.00;;;;;20.28;100.00;98730.47;7709978;22;97162;-62
2023/07/23 04:37:09;;;;;;;;;14.40;13.40;;;;;20.51;100.00;98735.19;7740220;22;96476;-61
2023/07/23 04:40:13;;;;;;;;;16.00;15.00;;;;;20.66;100.00;98724.06;7739308;22;96552;-61
2023/07/23 04:43:17;;;;;;;;;14.00;13.60;;;;;20.90;100.00;98721.31;7712572;22;98366;-61
2023/07/23 04:46:21;;;;;;;;;15.80;13.80;;;;;21.09;100.00;98727.63;7739001;22;96335;-61
2023/07/23 04:49:24;;;;;;;;;17.80;16.80;;;;;21.28;100.00;98718.63;7738119;22;96279;-61
2023/07/23 04:52:27;;;;;;;;;14.50;12.50;;;;;21.47;100.00;98712.06;7739969;22;96845;-60
2023/07/23 04:55:31;;;;;;;;;13.00;13.00;;;;;21.64;100.00;98708.78;7709336;22;96765;-61
2023/07/23 04:58:35;;;;;;;;;11.00;10.00;;;;;21.86;100.00;98708.97;7738329;22;96273;-61
2023/07/23 05:01:38;;;;;;;;;12.40;10.40;;;;;22.05;100.00;98708.97;7738960;22;96259;-61
2023/07/23 05:04:42;;;;;;;;;12.00;12.00;;;;;22.23;100.00;98707.28;7708885;22;96355;-61
2023/07/23 05:07:45;;;;;;;;;11.00;11.00;;;;;22.38;100.00;98712.50;7737631;22;96538;-61
2023/07/23 05:10:48;;;;;;;;;11.00;10.40;;;;;22.52;100.00;98707.03;7737149;22;96474;-61
2023/07/23 05:13:53;;;;;;;;;8.75;7.75;;;;;22.68;100.00;98703.66;7708853;22;97179;-61
2023/07/23 05:16:56;;;;;;;;;12.50;11.00;;;;;22.85;100.00;98712.16;7736176;22;96447;-60
2023/07/23 05:19:59;;;;;;;;;12.00;11.60;;;;;22.96;100.00;98712.78;7710123;22;98658;-61
2023/07/23 05:23:03;;;;;;;;;12.00;11.40;;;;;23.09;100.00;98706.44;7738164;22;96282;-62
2023/07/23 05:26:06;;;;;;;;;11.50;11.50;;;;;23.29;100.00;98706.00;7711530;22;98362;-61
2023/07/23 05:29:10;;;;;;;;;11.00;9.80;;;;;23.53;100.00;98713.19;7740941;22;96366;-61
2023/07/23 05:32:13;;;;;;;;;13.00;12.00;;;;;23.74;100.00;98717.09;7713618;22;98377;-61
2023/07/23 05:35:17;;;;;;;;;10.40;10.40;;;;;24.00;100.00;98714.53;7740168;22;96917;-62
2023/07/23 05:38:20;;;;;;;;;10.25;9.75;;;;;24.31;100.00;98720.09;7712954;22;96396;-61
2023/07/23 05:41:23;;;;;;;;;8.00;8.00;;;;;24.48;100.00;98714.69;7711772;22;99108;-61
2023/07/23 05:44:28;;;;;;;;;8.40;7.80;;;;;24.69;100.00;98723.19;7713227;22;98547;-61
2023/07/23 05:47:31;;;;;;;;;10.00;9.00;;;;;24.92;100.00;98711.03;7740850;22;96420;-61
2023/07/23 05:50:35;;;;;;;;;8.20;8.00;;;;;25.15;100.00;98715.28;7688340;22;98420;-61
2023/07/23 05:53:38;;;;;;;;;9.20;9.00;;;;;25.33;100.00;98713.38;7711698;22;96334;-62
2023/07/23 05:56:41;;;;;;;;;9.00;8.00;;;;;25.55;100.00;98715.22;7742092;22;96289;-62
2023/07/23 05:59:46;;;;;;;;;10.00;9.00;;;;;25.78;100.00;98717.50;7712679;22;96909;-61
2023/07/23 06:02:49;;;;;;;;;7.80;7.80;;;;;25.93;100.00;98710.66;7740979;22;96336;-61
2023/07/23 06:05:52;;;;;;;;;8.00;7.20;;;;;26.04;100.00;98714.72;7715979;22;97554;-62
2023/07/23 06:08:56;;;;;;;;;9.50;9.00;;;;;26.03;100.00;98713.09;7713874;22;98521;-62
2023/07/23 06:12:00;;;;;;;;;9.75;9.00;;;;;25.96;100.00;98721.03;7712446;22;99212;-62
2023/07/23 06:15:05;;;;;;;;;9.40;7.80;;;;;25.97;100.00;98722.66;7714438;22;96264;-64
2023/07/23 06:18:09;;;;;;;;;9.00;8.20;;;;;26.00;100.00;98721.22;7741013;22;96296;-61
2023/07/23 06:21:12;;;;;;;;;10.00;10.00;;;;;26.15;100.00;98715.97;7739593;22;96360;-62
2023/07/23 06:24:15;;;;;;;;;8.00;8.00;;;;;26.39;100.00;98712.69;7740855;22;97207;-61
2023/07/23 06:27:18;;;;;;;;;11.40;10.00;;;;;26.73;100.00;98720.88;7712499;22;96643;-62
2023/07/23 06:30:24;;;;;;;;;10.00;9.00;;;;;27.01;100.00;98706.63;7742417;22;96864;-62
2023/07/23 06:33:27;;;;;;;;;9.00;9.00;;;;;27.13;100.00;98721.38;7742327;22;96852;-61
2023/07/23 06:36:31;;;;;;;;;8.00;8.00;;;;;27.29;100.00;98720.78;7741824;22;96208;-61
2023/07/23 06:39:34;;;;;;;;;8.50;7.25;;;;;27.49;100.00;98700.66;7742721;22;96252;-63
2023/07/23 06:42:37;;;;;;;;;7.00;6.60;;;;;27.51;100.00;98709.44;7713347;22;98684;-61
2023/07/23 06:45:42;;;;;;;;;10.00;9.00;;;;;27.64;100.00;98704.78;7714236;22;96487;-61
2023/07/23 06:48:45;;;;;;;;;11.00;10.00;;;;;27.81;100.00;98715.69;7742372;22;96431;-61
2023/07/23 06:51:48;;;;;;;;;9.00;9.00;;;;;27.87;100.00;98709.59;7740081;22;96958;-63
2023/07/23 06:54:52;;;;;;;;;8.50;8.00;;;;;27.91;100.00;98702.25;7714866;22;96670;-61
2023/07/23 06:57:55;;;;;;;;;8.40;8.40;;;;;27.98;100.00;98712.78;7714748;22;96515;-61
2023/07/23 07:01:00;;;;;;;;;7.75;7.75;;;;;27.84;100.00;98707.53;7742247;22;96918;-63
2023/07/23 07:04:03;;;;;;;;;8.00;8.00;;;;;27.87;100.00;98704.06;7712327;22;96748;-63
2023/07/23 07:07:07;;;;;;;;;7.60;7.00;;;;;27.95;100.00;98694.84;7739735;22;96906;-62
2023/07/23 07:10:12;;;;;;;;;9.00;8.00;;;;;28.11;100.00;98688.69;7687864;22;97075;-62
2023/07/23 07:13:15;;;;;;;;;7.40;6.00;;;;;28.14;100.00;98690.81;7741633;22;96353;-61
2023/07/23 07:16:20;;;;;;;;;8.00;7.00;;;;;28.19;100.00;98688.66;7715043;22;98431;-61
2023/07/23 07:35:01;;;;;;;;;8.00;8.00;;;;;28.48;100.00;98675.75;6300134;27;95963;-73
2023/07/23 07:38:04;;;;;;;;;8.00;6.80;;;;;28.82;100.00;98683.69;6273385;27;96297;-72
2023/07/23 07:41:07;;;;;;;;;7.00;6.50;;;;;29.20;100.00;98681.34;6280377;27;96496;-73
2023/07/23 07:44:11;;;;;;;;;8.00;8.00;;;;;29.41;100.00;98663.75;6281571;27;96545;-73
2023/07/23 07:47:15;;;;;;;;;6.00;5.00;;;;;29.97;100.00;98678.50;6279761;27;97053;-73
2023/07/23 07:50:20;;;;;;;;;6.20;6.00;;;;;30.36;100.00;98677.59;6276701;27;96941;-73
2023/07/23 07:53:23;;;;;;;;;6.40;6.00;;;;;30.66;99.97;98671.63;6276212;27;96750;-73
2023/07/23 07:56:27;;;;;;;;;6.80;6.20;;;;;31.03;92.21;98674.94;6272477;27;96416;-73
2023/07/23 07:59:30;;;;;;;;;6.60;6.60;;;;;31.23;81.59;98679.38;6277854;27;98897;-74
2023/07/23 08:02:34;;;;;;;;;5.00;5.00;;;;;31.33;85.51;98670.44;6277328;27;96767;-73
2023/07/23 08:05:39;;;;;;;;;6.80;5.80;;;;;31.58;81.94;98683.00;6272784;27;96539;-72
2023/07/23 08:08:44;;;;;;;;;6.00;6.00;;;;;31.50;82.47;98680.38;6277637;27;98564;-73
2023/07/23 08:11:48;;;;;;;;;7.40;7.00;;;;;31.31;83.40;98672.81;6274680;27;96364;-73
2023/07/23 08:14:53;;;;;;;;;6.25;6.25;;;;;31.24;85.12;98673.44;6270880;27;97142;-73
2023/07/23 08:17:57;;;;;;;;;5.50;5.00;;;;;30.95;83.00;98665.56;6274283;27;96797;-73
2023/07/23 08:21:02;;;;;;;;;7.33;7.33;;;;;31.10;83.27;98663.97;6269422;27;96532;-73
2023/07/23 08:24:06;;;;;;;;;7.40;7.00;;;;;31.17;84.69;98661.34;6254358;27;96879;-73
2023/07/23 08:27:12;;;;;;;;;8.00;7.60;;;;;30.86;81.73;98637.13;6284184;27;97484;-73
2023/07/23 08:30:17;;;;;;;;;6.00;6.00;;;;;30.99;79.76;98658.09;6266975;27;96847;-72
2023/07/23 08:33:23;;;;;;;;;8.00;7.67;;;;;30.77;83.34;98644.88;6260558;27;96871;-74
2023/07/23 08:36:28;;;;;;;;;6.40;6.40;;;;;30.88;88.18;98657.88;6245870;27;97580;-72
2023/07/23 08:39:32;;;;;;;;;7.20;7.20;;;;;30.92;83.52;98644.03;6245682;28;97222;-73
2023/07/23 08:42:57;;;;;;;;;8.00;7.00;;;;;31.25;88.42;98646.41;6247048;28;96559;-73
2023/07/23 08:46:21;;;;;;;;;6.00;6.00;;;;;31.78;90.33;98645.59;6255942;27;96331;-73
2023/07/23 08:49:25;;;;;;;;;5.50;5.00;;;;;32.30;79.50;98635.03;6249572;27;96286;-73
2023/07/23 08:52:32;;;;;;;;;6.00;6.00;;;;;32.42;75.77;98632.06;6262411;27;96461;-73
2023/07/23 08:55:36;;;;;;;;;6.00;5.00;;;;;32.28;76.23;98635.41;6269775;27;96901;-73
2023/07/23 08:58:40;;;;;;;;;5.00;5.00;;;;;32.22;75.10;98623.75;6257909;27;97013;-73
2023/07/23 09:01:44;;;;;;;;;6.00;6.00;;;;;32.42;74.27;98629.25;6262491;27;99020;-71
2023/07/23 09:04:47;;;;;;;;;6.25;6.25;;;;;32.30;67.67;98635.84;6275355;27;98383;-72
2023/07/23 09:07:51;;;;;;;;;6.00;6.00;;;;;32.17;70.20;98638.00;6273995;27;97177;-72
2023/07/23 09:10:55;;;;;;;;;5.75;5.00;;;;;32.06;64.08;98623.00;6269335;27;97012;-72
2023/07/23 09:14:00;;;;;;;;;7.00;5.00;;;;;32.06;67.64;98636.97;6272567;27;96337;-72
2023/07/23 09:17:03;;;;;;;;;7.00;7.00;;;;;32.18;68.61;98636.03;6278233;27;96919;-72
2023/07/23 09:20:10;;;;;;;;;7.00;7.00;;;;;32.24;63.71;98629.78;6277144;27;96237;-72
2023/07/23 09:23:15;;;;;;;;;4.00;4.00;;;;;32.37;63.85;98632.38;6277364;27;96911;-73
2023/07/23 09:26:21;;;;;;;;;5.00;5.00;;;;;32.55;60.51;98639.06;6274607;27;99237;-73
2023/07/23 09:29:24;;;;;;;;;6.00;6.00;;;;;32.50;56.72;98631.03;6273890;27;96568;-73
2023/07/23 09:32:27;;;;;;;;;6.00;5.00;;;;;32.60;60.16;98625.59;6263751;27;96908;-72
2023/07/23 09:35:31;;;;;;;;;5.40;5.00;;;;;32.63;57.60;98632.44;6241798;27;98869;-72
2023/07/23 09:38:35;;;;;;;;;7.80;6.80;;;;;32.62;52.54;98625.22;6271254;27;96367;-72
2023/07/23 09:41:40;;;;;;;;;6.00;5.40;;;;;32.75;57.11;98628.63;6276208;27;96950;-74
2023/07/23 09:44:43;;;;;;;;;4.00;4.00;;;;;32.70;53.15;98623.38;6274786;27;96333;-74
2023/07/23 09:47:46;;;;;;;;;6.75;6.75;;;;;32.75;54.33;98611.88;6258202;27;96250;-73
2023/07/23 09:50:58;;;;;;;;;4.60;4.60;;;;;32.96;55.70;98609.44;6257149;27;98123;-74
2023/07/23 09:54:04;;;;;;;;;4.00;4.00;;;;;33.14;56.66;98618.88;6253453;27;96409;-74
2023/07/23 09:57:08;;;;;;;;;5.00;4.25;;;;;33.14;53.67;98615.25;6266240;27;96343;-74
2023/07/23 10:00:13;;;;;;;;;4.80;4.20;;;;;33.12;50.94;98601.69;6269476;27;97156;-74
2023/07/23 10:03:19;;;;;;;;;5.00;5.00;;;;;33.05;50.70;98618.34;6247755;27;97080;-72
2023/07/23 10:06:24;;;;;;;;;6.00;6.00;;;;;32.97;46.67;98613.84;6254997;27;96611;-72
2023/07/23 10:09:29;;;;;;;;;5.40;5.00;;;;;33.09;48.03;98600.44;6261395;27;96274;-72
2023/07/23 10:12:32;;;;;;;;;4.40;4.40;;;;;32.48;45.61;98609.06;6247736;27;98516;-72
2023/07/23 10:15:38;;;;;;;;;4.20;4.20;;;;;32.60;46.74;98585.72;6261527;27;96312;-72
2023/07/23 10:18:43;;;;;;;;;5.20;5.20;;;;;32.81;48.36;98604.81;6261324;27;99124;-72
2023/07/23 10:21:50;;;;;;;;;4.40;4.40;;;;;32.90;50.03;98605.34;6266907;27;96933;-72
2023/07/23 10:24:54;;;;;;;;;6.00;6.00;;;;;33.02;44.72;98605.94;6254145;27;96594;-72
2023/07/23 10:27:59;;;;;;;;;5.00;5.00;;;;;32.92;43.80;98601.00;6248529;27;96282;-72
2023/07/23 10:31:19;;;;;;;;;5.00;5.00;;;;;32.81;42.51;98590.84;6232816;27;97273;-72
2023/07/23 10:34:42;;;;;;;;;5.00;5.00;;;;;32.85;39.74;98600.91;6258175;27;97061;-73
2023/07/23 10:38:20;;;;;;;;;5.60;5.00;;;;;33.24;40.21;98584.72;6253829;27;96411;-72
2023/07/23 10:41:47;;;;;;;;;4.00;4.00;;;;;33.36;38.55;98592.06;6244447;27;96354;-73
2023/07/23 10:45:14;;;;;;;;;4.60;4.60;;;;;33.45;40.33;98589.78;6254160;27;97472;-72
2023/07/23 10:48:18;;;;;;;;;4.00;3.40;;;;;33.53;39.22;98578.28;6257667;27;96444;-72
2023/07/23 10:51:23;;;;;;;;;8.60;7.00;;;;;33.58;40.82;98591.13;6259186;27;96623;-73
2023/07/23 10:54:26;;;;;;;;;6.00;6.00;;;;;33.57;40.40;98580.34;6252731;27;96872;-72
2023/07/23 10:57:31;;;;;;;;;5.00;4.40;;;;;33.53;40.59;98581.09;6260868;27;96800;-74
2023/07/23 11:00:35;;;;;;;;;5.40;5.00;;;;;33.53;41.91;98573.91;6241086;27;98587;-74
2023/07/23 11:03:44;;;;;;;;;3.00;3.00;;;;;33.49;43.27;98580.25;6260518;27;98961;-74
2023/07/23 11:07:00;;;;;;;;;4.00;4.00;;;;;33.77;44.28;98571.41;6256576;27;96487;-74
2023/07/23 11:10:19;;;;;;;;;6.00;5.00;;;;;34.11;42.43;98569.34;6257467;27;96271;-72
2023/07/23 11:13:26;;;;;;;;;6.00;5.20;;;;;34.05;38.01;98565.31;6231826;27;98526;-72
2023/07/23 11:16:30;;;;;;;;;5.00;5.00;;;;;34.15;38.52;98563.81;6262682;27;96471;-73
2023/07/23 11:19:33;;;;;;;;;7.75;6.00;;;;;34.07;39.56;98562.91;6255409;27;96590;-72
2023/07/23 11:22:42;;;;;;;;;7.40;6.00;;;;;33.75;38.11;98571.00;6257789;27;96405;-73
2023/07/23 11:25:45;;;;;;;;;5.00;5.00;;;;;33.48;39.42;98555.47;6252561;27;96474;-73
2023/07/23 11:28:51;;;;;;;;;5.00;5.00;;;;;33.72;41.83;98557.78;6252605;27;96290;-73
2023/07/23 11:31:54;;;;;;;;;5.00;5.00;;;;;33.97;39.75;98544.03;6264402;27;96949;-73
2023/07/23 11:34:58;;;;;;;;;5.80;5.00;;;;;33.77;38.69;98545.47;6258086;27;97715;-73
2023/07/23 11:38:02;;;;;;;;;7.00;6.40;;;;;33.81;40.54;98546.28;6266628;27;96355;-73
2023/07/23 11:41:06;;;;;;;;;5.00;4.00;;;;;33.75;42.98;98545.84;6247765;27;96581;-73
2023/07/23 11:44:11;;;;;;;;;7.00;6.00;;;;;33.41;42.92;98535.84;6228531;27;98890;-73
2023/07/23 11:47:14;;;;;;;;;5.60;5.60;;;;;33.61;44.99;98539.25;6258893;27;96918;-72
2023/07/23 11:50:18;;;;;;;;;5.00;4.20;;;;;33.71;45.85;98541.41;6257504;27;97302;-73
2023/07/23 11:53:34;;;;;;;;;6.00;6.00;;;;;33.51;45.43;98530.38;6264729;27;96311;-72
2023/07/23 11:56:39;;;;;;;;;5.00;4.00;;;;;33.53;44.82;98525.19;6246891;27;97332;-73
2023/07/23 11:59:44;;;;;;;;;5.80;5.20;;;;;33.12;45.81;98492.75;6246985;27;96590;-72
2023/07/23 12:02:48;;;;;;;;;6.67;6.00;;;;;33.46;45.76;98521.53;6247005;27;96836;-73
2023/07/23 12:05:51;;;;;;;;;5.20;4.20;;;;;33.77;46.65;98517.50;6262052;27;96359;-72
2023/07/23 12:08:54;;;;;;;;;6.50;5.50;;;;;33.73;44.10;98511.03;6226375;27;98632;-73
2023/07/23 12:11:58;;;;;;;;;8.60;8.00;;;;;33.86;42.78;98502.00;6262426;27;96338;-73
2023/07/23 12:15:04;;;;;;;;;6.00;6.00;;;;;34.27;44.97;98510.38;6264871;27;96384;-73
2023/07/23 12:18:08;;;;;;;;;8.00;8.00;;;;;34.32;45.38;98510.81;6265945;27;96906;-73
2023/07/23 12:21:17;;;;;;;;;6.00;5.00;;;;;34.13;45.42;98502.63;6264499;27;96830;-73
2023/07/23 12:24:22;;;;;;;;;6.00;6.00;;;;;34.06;45.03;98504.59;6245650;27;96780;-74
2023/07/23 12:27:25;;;;;;;;;7.60;7.00;;;;;33.81;44.91;98495.97;6258798;27;99121;-73
2023/07/23 12:30:30;;;;;;;;;5.00;4.60;;;;;33.52;42.90;98506.03;6257384;27;96618;-73
2023/07/23 12:33:33;;;;;;;;;7.00;7.00;;;;;33.05;42.59;98489.88;6260049;27;98614;-73
2023/07/23 12:36:36;;;;;;;;;6.00;6.00;;;;;33.27;44.53;98508.53;6264553;27;96822;-73
2023/07/23 12:39:40;;;;;;;;;7.00;7.00;;;;;33.14;46.47;98506.31;6243565;27;98553;-73
2023/07/23 12:42:43;;;;;;;;;6.00;6.00;;;;;32.98;46.65;98500.97;6264973;27;96458;-73
2023/07/23 12:45:47;;;;;;;;;5.33;5.00;;;;;32.87;51.08;98474.88;6267628;27;97650;-74
2023/07/23 12:48:51;;;;;;;;;5.00;5.00;;;;;33.26;47.36;98501.34;6262805;27;96446;-73
2023/07/23 12:51:54;;;;;;;;;4.80;4.80;;;;;33.06;46.74;98500.66;6253589;27;97875;-73
2023/07/23 12:54:57;;;;;;;;;5.50;5.50;;;;;33.06;43.85;98489.50;6244171;27;96404;-73
2023/07/23 12:58:00;;;;;;;;;7.00;7.00;;;;;33.34;43.85;98485.44;6264713;27;98473;-74
2023/07/23 13:01:05;;;;;;;;;8.00;7.40;;;;;33.42;44.68;98481.56;6253918;27;96752;-74
2023/07/23 13:04:08;;;;;;;;;5.00;5.00;;;;;33.61;45.23;98480.56;6256673;27;96692;-72
2023/07/23 13:07:12;;;;;;;;;7.00;6.00;;;;;33.82;46.48;98469.59;6264193;27;96658;-75
2023/07/23 13:10:15;;;;;;;;;6.40;6.00;;;;;33.87;43.03;98467.25;6259134;27;96456;-74
2023/07/23 13:13:18;;;;;;;;;5.00;5.00;;;;;33.99;43.72;98477.34;6255055;27;96353;-74
2023/07/23 13:16:23;;;;;;;;;5.60;5.60;;;;;34.08;43.04;98471.41;6235883;27;98456;-74
2023/07/23 13:19:26;;;;;;;;;7.00;6.00;;;;;34.26;42.79;98458.38;6250552;27;98607;-74
2023/07/23 13:22:29;;;;;;;;;3.40;3.00;;;;;34.44;44.65;98470.53;6251268;27;96393;-74
2023/07/23 13:25:32;;;;;;;;;5.60;5.60;;;;;34.39;46.44;98465.28;6245743;27;96635;-73
2023/07/23 13:28:35;;;;;;;;;6.00;6.00;;;;;34.26;43.67;98469.56;6252974;27;96601;-73
2023/07/23 13:31:40;;;;;;;;;5.00;5.00;;;;;33.91;42.18;98456.09;6249541;27;97520;-74
2023/07/23 13:34:43;;;;;;;;;6.00;5.00;;;;;33.85;43.22;98444.47;6260252;27;97221;-74
2023/07/23 13:37:47;;;;;;;;;5.00;5.00;;;;;33.76;42.44;98449.59;6235198;27;97735;-73
2023/07/23 13:40:50;;;;;;;;;6.25;4.00;;;;;33.64;40.72;98451.81;6261113;27;96290;-74
2023/07/23 13:43:53;;;;;;;;;6.00;6.00;;;;;33.75;46.07;98441.56;6263328;27;96949;-74
2023/07/23 13:46:58;;;;;;;;;4.60;4.00;;;;;33.50;42.60;98446.91;6232861;27;96847;-74
2023/07/23 13:50:02;;;;;;;;;6.00;5.60;;;;;33.38;43.54;98434.00;6258781;27;96304;-74
2023/07/23 13:53:06;;;;;;;;;6.25;5.75;;;;;33.33;44.14;98439.94;6260848;27;96813;-74
2023/07/23 13:56:09;;;;;;;;;6.80;5.00;;;;;33.49;45.16;98436.91;6241920;27;98433;-74
2023/07/23 13:59:13;;;;;;;;;7.00;6.00;;;;;33.62;44.40;98431.84;6250754;27;96586;-74
2023/07/23 14:02:18;;;;;;;;;4.40;4.40;;;;;33.62;44.29;98423.47;6246998;27;96942;-74
2023/07/23 14:05:27;;;;;;;;;6.00;5.67;;;;;33.57;45.02;98426.59;6245201;27;96421;-74
2023/07/23 14:08:30;;;;;;;;;5.25;5.00;;;;;33.68;46.53;98424.72;6234170;27;96718;-74
2023/07/23 14:11:33;;;;;;;;;6.00;5.00;;;;;33.73;44.06;98425.19;6242707;27;96396;-74
2023/07/23 14:14:37;;;;;;;;;5.00;5.00;;;;;33.73;43.74;98427.16;6259411;27;96488;-73
2023/07/23 14:17:41;;;;;;;;;5.00;5.00;;;;;33.69;44.46;98418.75;6256230;27;96308;-73
2023/07/23 14:20:45;;;;;;;;;5.00;5.00;;;;;33.65;43.21;98409.50;6235642;27;97030;-74
2023/07/23 14:23:48;;;;;;;;;6.40;5.60;;;;;33.86;44.67;98415.31;6251165;27;96802;-74
2023/07/23 14:26:52;;;;;;;;;5.00;4.80;;;;;33.72;41.12;98415.19;6256712;27;96280;-73
2023/07/23 14:29:55;;;;;;;;;5.40;5.00;;;;;33.84;44.79;98412.09;6262471;27;96862;-74